createdAt,value
2022-08-30T00:03:47.518Z,17.20
2022-08-30T00:08:50.606Z,17.30
2022-08-30T00:13:54.375Z,17.40
2022-08-30T00:18:56.510Z,17.30
2022-08-30T00:23:58.452Z,17.40
2022-08-30T00:29:00.358Z,17.30
2022-08-30T00:34:02.227Z,17.20
2022-08-30T00:39:05.452Z,17.10
2022-08-30T00:44:08.012Z,17.00
2022-08-30T00:49:12.876Z,17.00
2022-08-30T00:54:15.195Z,17.10
2022-08-30T00:59:17.656Z,17.20
2022-08-30T01:04:21.945Z,17.30
2022-08-30T01:09:24.303Z,17.40
2022-08-30T01:14:26.359Z,17.40
2022-08-30T01:19:50.419Z,17.40
2022-08-30T01:24:55.119Z,17.30
2022-08-30T01:29:58.151Z,17.40
2022-08-30T01:34:59.997Z,17.30
2022-08-30T01:40:02.116Z,17.30
2022-08-30T01:45:05.342Z,17.40
2022-08-30T01:50:08.394Z,17.30
2022-08-30T01:55:10.703Z,17.30
2022-08-30T02:00:13.479Z,17.20
2022-08-30T02:05:16.079Z,17.10
2022-08-30T02:10:17.948Z,17.10
2022-08-30T02:15:19.802Z,17.30
2022-08-30T02:20:21.801Z,17.10
2022-08-30T02:25:23.547Z,17.20
2022-08-30T02:30:25.426Z,17.00
2022-08-30T02:35:27.562Z,17.00
2022-08-30T02:40:29.506Z,16.80
2022-08-30T02:45:31.671Z,16.70
2022-08-30T02:50:33.683Z,16.70
2022-08-30T02:55:35.607Z,16.70
2022-08-30T03:00:38.202Z,16.60
2022-08-30T03:05:40.023Z,16.50
2022-08-30T03:10:44.002Z,16.50
2022-08-30T03:15:45.796Z,16.50
2022-08-30T03:20:54.131Z,16.70
2022-08-30T03:25:57.430Z,16.60
2022-08-30T03:30:59.258Z,16.50
2022-08-30T03:36:01.274Z,16.50
2022-08-30T03:41:04.545Z,16.70
2022-08-30T03:46:07.821Z,16.60
2022-08-30T03:51:09.840Z,16.60
2022-08-30T03:56:11.624Z,16.60
2022-08-30T04:01:13.506Z,16.60
2022-08-30T04:06:15.706Z,16.70
2022-08-30T04:11:17.516Z,16.60
2022-08-30T04:16:19.984Z,16.60
2022-08-30T04:21:21.884Z,16.70
2022-08-30T04:26:23.972Z,16.60
2022-08-30T04:31:31.490Z,16.60
2022-08-30T04:36:33.460Z,16.70
2022-08-30T04:41:36.876Z,16.80
2022-08-30T04:46:44.347Z,16.70
2022-08-30T04:51:46.747Z,16.70
2022-08-30T04:56:48.611Z,16.90
2022-08-30T05:01:50.455Z,16.90
2022-08-30T05:06:52.930Z,16.90
2022-08-30T05:11:55.057Z,16.80
2022-08-30T05:16:56.858Z,16.70
2022-08-30T05:21:58.637Z,16.80
2022-08-30T05:27:00.424Z,16.80
2022-08-30T05:32:02.487Z,16.80
2022-08-30T05:37:04.428Z,16.90
2022-08-30T05:42:06.388Z,17.00
2022-08-30T05:47:08.159Z,17.10
2022-08-30T05:52:10.318Z,17.00
2022-08-30T05:57:12.269Z,17.10
2022-08-30T06:02:14.507Z,17.20
2022-08-30T06:07:18.001Z,17.30
2022-08-30T06:12:23.151Z,17.50
2022-08-30T06:17:24.968Z,17.70
2022-08-30T06:22:26.815Z,17.70
2022-08-30T06:27:28.582Z,17.90
2022-08-30T06:32:30.371Z,18.10
2022-08-30T06:37:33.115Z,18.40
2022-08-30T06:42:34.954Z,18.20
2022-08-30T06:47:36.778Z,18.40
2022-08-30T06:52:39.786Z,18.60
2022-08-30T06:57:41.908Z,18.80
2022-08-30T07:02:43.843Z,18.70
2022-08-30T07:07:45.718Z,18.70
2022-08-30T07:12:48.173Z,18.70
2022-08-30T07:18:08.792Z,18.70
2022-08-30T07:23:11.367Z,19.20
2022-08-30T07:28:13.448Z,19.60
2022-08-30T07:33:15.264Z,19.30
2022-08-30T07:38:17.086Z,19.10
2022-08-30T07:43:19.189Z,18.70
2022-08-30T07:48:21.124Z,18.70
2022-08-30T07:53:23.700Z,18.70
2022-08-30T07:58:25.546Z,18.80
2022-08-30T08:03:27.457Z,19.10
2022-08-30T08:08:29.404Z,19.30
2022-08-30T08:13:32.897Z,19.30
2022-08-30T08:18:47.039Z,19.40
2022-08-30T08:23:48.957Z,19.50
2022-08-30T08:28:50.789Z,19.10
2022-08-30T08:33:52.809Z,18.90
2022-08-30T08:38:54.671Z,18.70
2022-08-30T08:43:56.551Z,18.70
2022-08-30T08:49:03.755Z,18.80
2022-08-30T08:54:14.453Z,19.10
2022-08-30T08:59:16.854Z,19.00
2022-08-30T09:04:25.258Z,19.30
2022-08-30T09:09:32.460Z,19.50
2022-08-30T09:14:55.886Z,19.30
2022-08-30T09:20:01.260Z,19.00
2022-08-30T09:25:30.945Z,18.70
2022-08-30T09:30:34.120Z,18.30
2022-08-30T09:35:35.965Z,18.10
2022-08-30T09:40:49.728Z,18.10
2022-08-30T09:46:00.300Z,18.00
2022-08-30T09:51:05.902Z,18.10
2022-08-30T09:56:18.720Z,18.20
2022-08-30T10:01:39.713Z,18.20
2022-08-30T10:07:00.007Z,18.00
2022-08-30T10:12:36.562Z,17.90
2022-08-30T10:17:45.766Z,17.70
2022-08-30T10:22:58.617Z,17.70
2022-08-30T10:28:22.836Z,17.70
2022-08-30T10:33:35.843Z,17.90
2022-08-30T10:38:41.014Z,17.80
2022-08-30T10:44:01.118Z,17.90
2022-08-30T10:49:08.971Z,18.20
2022-08-30T10:54:15.611Z,18.40
2022-08-30T10:59:21.382Z,18.50
2022-08-30T11:04:45.452Z,18.60
2022-08-30T11:09:50.339Z,18.80
2022-08-30T11:14:53.237Z,19.40
2022-08-30T11:19:58.567Z,19.70
2022-08-30T11:25:57.621Z,19.10
2022-08-30T11:31:08.947Z,19.30
2022-08-30T11:36:37.491Z,19.30
2022-08-30T11:41:46.178Z,19.60
2022-08-30T11:46:55.055Z,19.30
2022-08-30T11:52:27.102Z,19.10
2022-08-30T11:57:50.133Z,19.30
2022-08-30T12:03:00.186Z,20.10
2022-08-30T12:08:03.156Z,20.80
2022-08-30T12:13:05.134Z,20.60
2022-08-30T12:18:28.530Z,20.30
2022-08-30T12:23:44.645Z,20.00
2022-08-30T12:28:49.103Z,20.60
2022-08-30T12:33:58.838Z,20.80
2022-08-30T12:39:15.427Z,20.30
2022-08-30T12:44:26.791Z,20.10
2022-08-30T12:49:32.259Z,19.70
2022-08-30T12:54:34.127Z,19.80
2022-08-30T12:59:56.814Z,19.60
2022-08-30T13:05:48.230Z,19.40
2022-08-30T13:11:07.907Z,19.40
2022-08-30T13:16:38.306Z,19.10
2022-08-30T13:21:55.799Z,19.00
2022-08-30T13:27:03.735Z,18.80
2022-08-30T13:32:05.697Z,18.50
2022-08-30T13:37:44.183Z,18.00
2022-08-30T13:42:32.453Z,17.90
2022-08-30T13:47:35.285Z,17.70
2022-08-30T13:52:38.501Z,17.60
2022-08-30T13:57:57.293Z,17.30
2022-08-30T14:03:00.200Z,17.30
2022-08-30T14:08:02.461Z,17.30
2022-08-30T14:13:09.006Z,17.30
2022-08-30T14:18:13.577Z,17.30
2022-08-30T14:23:19.001Z,17.50
2022-08-30T14:28:21.456Z,17.40
2022-08-30T14:33:23.814Z,17.40
2022-08-30T14:38:25.857Z,17.20
2022-08-30T14:43:27.714Z,17.10
2022-08-30T14:48:29.712Z,16.90
2022-08-30T14:53:32.239Z,16.90
2022-08-30T14:58:34.479Z,16.70
2022-08-30T15:03:38.205Z,16.90
2022-08-30T15:08:40.596Z,16.90
2022-08-30T15:13:44.696Z,16.90
2022-08-30T15:18:47.267Z,16.80
2022-08-30T15:23:49.555Z,16.80
2022-08-30T15:28:51.914Z,16.80
2022-08-30T15:33:53.938Z,16.50
2022-08-30T15:38:56.832Z,16.40
2022-08-30T15:43:59.684Z,16.30
2022-08-30T15:49:09.092Z,16.10
2022-08-30T15:54:13.062Z,16.10
2022-08-30T15:59:15.580Z,16.00
2022-08-30T16:04:18.661Z,16.00
2022-08-30T16:09:20.885Z,16.00
2022-08-30T16:14:22.667Z,16.00
2022-08-30T16:19:24.568Z,15.90
2022-08-30T16:24:26.979Z,15.90
2022-08-30T16:29:28.812Z,15.90
2022-08-30T16:34:31.555Z,15.90
2022-08-30T16:39:35.306Z,15.90
2022-08-30T16:44:37.079Z,15.80
2022-08-30T16:49:39.967Z,15.70
2022-08-30T16:54:41.796Z,15.70
2022-08-30T16:59:44.503Z,15.50
2022-08-30T17:04:49.796Z,15.40
2022-08-30T17:09:54.227Z,15.30
2022-08-30T17:14:56.494Z,15.20
2022-08-30T17:19:58.305Z,15.20
2022-08-30T17:25:00.589Z,15.10
2022-08-30T17:30:03.228Z,15.00
2022-08-30T17:35:06.214Z,15.10
2022-08-30T17:40:14.399Z,15.00
2022-08-30T17:45:17.520Z,14.90
2022-08-30T17:50:19.617Z,15.00
2022-08-30T17:55:21.747Z,15.00
2022-08-30T18:00:23.936Z,15.00
2022-08-30T18:05:26.204Z,14.80
2022-08-30T18:10:32.947Z,15.00
2022-08-30T18:15:34.908Z,15.00
2022-08-30T18:20:36.697Z,15.00
2022-08-30T18:25:38.759Z,14.90
2022-08-30T18:30:41.562Z,14.90
2022-08-30T18:35:48.450Z,14.70
2022-08-30T18:40:52.686Z,14.90
2022-08-30T18:45:54.732Z,14.80
2022-08-30T18:50:56.502Z,14.70
2022-08-30T18:55:58.285Z,14.70
2022-08-30T19:01:00.359Z,14.70
2022-08-30T19:06:07.665Z,14.80
2022-08-30T19:11:09.587Z,14.80
2022-08-30T19:16:12.555Z,14.70
2022-08-30T19:21:15.163Z,14.50
2022-08-30T19:26:19.226Z,14.40
2022-08-30T19:31:20.997Z,14.60
2022-08-30T19:36:22.954Z,14.40
2022-08-30T19:41:24.886Z,14.30
2022-08-30T19:46:26.663Z,14.40
2022-08-30T19:51:28.569Z,14.50
2022-08-30T19:56:30.597Z,14.30
2022-08-30T20:01:34.014Z,14.20
2022-08-30T20:06:36.158Z,14.10
2022-08-30T20:11:39.095Z,14.00
2022-08-30T20:16:42.361Z,14.00
2022-08-30T20:21:47.907Z,14.10
2022-08-30T20:26:51.973Z,14.00
2022-08-30T20:31:53.780Z,13.80
2022-08-30T20:36:56.867Z,13.60
2022-08-30T20:41:58.669Z,13.50
2022-08-30T20:47:01.706Z,13.60
2022-08-30T20:52:04.890Z,13.80
2022-08-30T20:57:07.143Z,13.90
2022-08-30T21:02:09.073Z,13.70
2022-08-30T21:07:12.728Z,13.50
2022-08-30T21:12:14.618Z,13.50
2022-08-30T21:17:16.432Z,13.40
2022-08-30T21:22:18.235Z,13.40
2022-08-30T21:27:21.357Z,13.30
2022-08-30T21:32:23.239Z,13.30
2022-08-30T21:37:25.383Z,13.30
2022-08-30T21:42:27.739Z,13.40
2022-08-30T21:47:29.519Z,13.60
2022-08-30T21:52:31.378Z,13.80
2022-08-30T21:57:33.227Z,13.80
2022-08-30T22:02:35.081Z,13.70
2022-08-30T22:07:37.438Z,13.60
2022-08-30T22:12:39.865Z,13.50
2022-08-30T22:17:43.656Z,13.40
2022-08-30T22:22:45.664Z,13.40
2022-08-30T22:27:47.435Z,13.40
2022-08-30T22:32:49.497Z,13.40
2022-08-30T22:37:53.725Z,13.30
2022-08-30T22:42:55.627Z,13.30
2022-08-30T22:47:58.077Z,13.30
2022-08-30T22:52:59.899Z,13.10
2022-08-30T22:58:01.788Z,13.00
2022-08-30T23:03:04.463Z,12.90
2022-08-30T23:08:06.686Z,12.60
2022-08-30T23:13:08.489Z,12.50
2022-08-30T23:18:10.520Z,12.40
2022-08-30T23:23:30.943Z,12.30
2022-08-30T23:28:51.364Z,12.20
2022-08-30T23:34:11.985Z,12.10
2022-08-30T23:39:32.366Z,12.00
2022-08-30T23:44:52.786Z,11.90
2022-08-30T23:50:13.402Z,11.90
2022-08-30T23:55:34.027Z,11.80
